Time;durP1;ratioP1;P1;durP2;ratioP2;P2;SDS_P1;SDS_P2;PMS_P1;PMS_P2;Temp;Humidity;BMP_temperature;BMP_pressure;BME280_temperature;BME280_humidity;BME280_pressure;Samples;Min_cycle;Max_cycle;Signal;HPM_P1;HPM_P2
2022/06/07 00:00:59;;;;;;;2.77;2.47;;;18.20;99.90;;;;;;5073213;28;20442;-46
2022/06/07 00:03:26;;;;;;;2.27;2.07;;;18.20;99.90;;;;;;5073395;28;20440;-46
2022/06/07 00:05:53;;;;;;;2.70;2.50;;;18.30;99.90;;;;;;5073325;28;20464;-49
2022/06/07 00:08:20;;;;;;;2.90;2.70;;;18.30;99.90;;;;;;5072975;28;20569;-47
2022/06/07 00:10:48;;;;;;;3.20;2.67;;;18.30;99.90;;;;;;5072892;28;20571;-47
2022/06/07 00:13:16;;;;;;;2.40;2.20;;;18.30;99.90;;;;;;5072975;28;20502;-47
2022/06/07 00:15:44;;;;;;;2.70;2.30;;;18.40;99.90;;;;;;5072768;28;20436;-46
2022/06/07 00:18:13;;;;;;;2.50;2.30;;;18.40;99.90;;;;;;5072651;28;20697;-46
2022/06/07 00:20:42;;;;;;;2.40;2.03;;;18.50;99.90;;;;;;5072438;28;20497;-48
2022/06/07 00:23:12;;;;;;;3.07;2.80;;;18.50;99.90;;;;;;5072678;28;21007;-47
2022/06/07 00:25:40;;;;;;;2.83;2.50;;;18.50;99.90;;;;;;5073035;28;20437;-47
2022/06/07 00:28:08;;;;;;;5.03;2.70;;;18.50;99.90;;;;;;5072689;28;20508;-47
2022/06/07 00:30:35;;;;;;;3.57;2.57;;;18.50;99.90;;;;;;5072378;28;20445;-47
2022/06/07 00:33:03;;;;;;;4.83;3.00;;;18.50;99.90;;;;;;5072656;28;20633;-47
2022/06/07 00:35:31;;;;;;;3.80;3.20;;;18.50;99.90;;;;;;5072469;28;20858;-46
2022/06/07 00:37:59;;;;;;;3.47;3.00;;;18.50;99.90;;;;;;5072510;28;20439;-46
2022/06/07 00:40:26;;;;;;;2.80;2.60;;;18.30;99.90;;;;;;5072648;28;20502;-47
2022/06/07 00:42:53;;;;;;;5.50;3.27;;;18.30;99.90;;;;;;5072291;28;20464;-47
2022/06/07 00:45:23;;;;;;;3.03;2.77;;;18.30;99.90;;;;;;5072208;28;20502;-48
2022/06/07 00:47:50;;;;;;;3.20;2.80;;;18.40;99.90;;;;;;5071887;28;20471;-50
2022/06/07 00:50:25;;;;;;;2.97;2.43;;;18.40;99.90;;;;;;5071752;28;20441;-47
2022/06/07 00:52:54;;;;;;;9.07;2.97;;;18.50;99.90;;;;;;5072065;28;20472;-47
2022/06/07 00:55:21;;;;;;;3.60;2.40;;;18.50;99.90;;;;;;5072159;28;20488;-46
2022/06/07 00:57:48;;;;;;;2.97;2.33;;;18.60;99.90;;;;;;5072218;28;20532;-50
2022/06/07 01:00:18;;;;;;;3.10;2.53;;;18.60;99.90;;;;;;5071705;28;20864;-49
2022/06/07 01:02:45;;;;;;;3.57;2.83;;;18.60;99.90;;;;;;5071581;28;20468;-47
2022/06/07 01:05:12;;;;;;;3.20;2.90;;;18.60;99.90;;;;;;5071844;28;20451;-48
2022/06/07 01:13:09;;;;;;;3.83;3.30;;;18.30;99.90;;;;;;5071792;28;20541;-47
2022/06/07 01:15:36;;;;;;;5.83;3.43;;;17.80;99.90;;;;;;5071604;28;20876;-47
2022/06/07 01:18:03;;;;;;;3.77;2.67;;;17.50;99.90;;;;;;5071716;28;20437;-47
2022/06/07 01:20:31;;;;;;;3.10;2.70;;;17.40;99.90;;;;;;5071852;28;20501;-47
2022/06/07 01:22:59;;;;;;;4.10;2.83;;;17.40;99.90;;;;;;5071210;28;21050;-50
2022/06/07 01:25:26;;;;;;;3.27;2.87;;;17.50;99.90;;;;;;5071596;28;20489;-48
2022/06/07 01:27:53;;;;;;;3.00;2.40;;;17.60;99.90;;;;;;5071744;28;20533;-47
2022/06/07 01:30:21;;;;;;;2.70;2.20;;;17.70;99.90;;;;;;5071102;28;20452;-47
2022/06/07 01:32:48;;;;;;;2.47;2.27;;;17.80;99.90;;;;;;5071046;28;20887;-47
2022/06/07 01:35:15;;;;;;;2.87;2.50;;;17.90;99.90;;;;;;5071250;28;20876;-48
2022/06/07 01:37:42;;;;;;;3.40;3.10;;;18.00;99.90;;;;;;5071249;28;20468;-46
2022/06/07 01:42:56;;;;;;;4.13;3.27;;;18.10;99.90;;;;;;5071341;28;20444;-47
2022/06/07 01:45:23;;;;;;;2.30;2.10;;;18.10;99.90;;;;;;5071318;28;20436;-47
2022/06/07 01:47:50;;;;;;;3.57;2.37;;;18.20;99.90;;;;;;5071365;28;20567;-48
2022/06/07 01:50:18;;;;;;;3.10;2.70;;;18.20;99.90;;;;;;5070717;28;20448;-47
2022/06/07 01:52:45;;;;;;;2.80;2.03;;;18.30;99.90;;;;;;5129013;22;20492;-48
2022/06/07 01:55:13;;;;;;;2.73;1.70;;;18.50;99.90;;;;;;5071158;28;20472;-49
2022/06/07 01:57:40;;;;;;;5.63;3.20;;;18.50;99.90;;;;;;5071145;28;20837;-48
2022/06/07 02:00:08;;;;;;;2.10;1.70;;;18.40;99.90;;;;;;5070780;28;20440;-48
2022/06/07 02:02:35;;;;;;;5.10;1.67;;;18.20;99.90;;;;;;5070961;28;20464;-48
2022/06/07 02:05:02;;;;;;;3.10;2.10;;;18.20;99.90;;;;;;5071216;28;20468;-51
2022/06/07 02:07:29;;;;;;;2.60;1.63;;;18.20;99.90;;;;;;5071023;28;20559;-49
2022/06/07 02:09:56;;;;;;;1.63;1.50;;;18.00;99.90;;;;;;5071045;28;20444;-48
2022/06/07 02:12:24;;;;;;;2.53;1.60;;;17.90;99.90;;;;;;5070860;28;20472;-48
2022/06/07 02:14:51;;;;;;;2.73;1.40;;;17.90;99.90;;;;;;5072271;28;20501;-48
2022/06/07 02:17:18;;;;;;;3.93;2.10;;;18.00;99.90;;;;;;5074950;28;20480;-48
2022/06/07 02:19:45;;;;;;;2.30;1.80;;;18.10;99.90;;;;;;5075119;28;20467;-50
2022/06/07 02:22:12;;;;;;;2.33;1.43;;;18.00;99.90;;;;;;5075031;28;20496;-48
2022/06/07 02:24:39;;;;;;;2.50;2.27;;;18.00;99.90;;;;;;5074989;28;20856;-48
2022/06/07 02:27:10;;;;;;;2.93;1.40;;;18.00;99.90;;;;;;5074608;28;20502;-48
2022/06/07 02:29:41;;;;;;;5.10;2.07;;;18.10;99.90;;;;;;5074455;28;20448;-48
2022/06/07 02:32:12;;;;;;;2.33;1.73;;;18.10;99.90;;;;;;5075081;28;20464;-50
2022/06/07 02:34:41;;;;;;;2.20;1.90;;;18.10;99.90;;;;;;5074897;28;20447;-49
2022/06/07 02:37:11;;;;;;;3.37;2.13;;;18.00;99.90;;;;;;5074431;28;20521;-48
2022/06/07 02:39:39;;;;;;;2.30;1.50;;;18.00;99.90;;;;;;5074678;28;20509;-49
2022/06/07 02:42:10;;;;;;;4.60;1.60;;;17.90;99.90;;;;;;5074523;28;20521;-47
2022/06/07 02:44:39;;;;;;;3.90;1.80;;;17.90;99.90;;;;;;5074575;28;20520;-51
2022/06/07 02:47:06;;;;;;;4.80;2.00;;;17.90;99.90;;;;;;5074131;28;20448;-47
2022/06/07 02:49:33;;;;;;;3.17;2.00;;;18.00;99.90;;;;;;5073996;28;20479;-46
2022/06/07 02:52:00;;;;;;;2.73;2.20;;;18.00;99.90;;;;;;5074548;28;20565;-45
2022/06/07 02:54:27;;;;;;;2.17;1.97;;;18.10;99.90;;;;;;5074350;28;20467;-48
2022/06/07 02:56:55;;;;;;;2.67;2.07;;;18.10;99.90;;;;;;5074588;28;20442;-47
2022/06/07 02:59:22;;;;;;;3.50;2.30;;;18.20;99.90;;;;;;5074265;28;20444;-45
2022/06/07 03:01:50;;;;;;;4.17;1.97;;;18.10;99.90;;;;;;5074551;28;20476;-46
2022/06/07 03:04:17;;;;;;;2.70;1.90;;;18.10;99.90;;;;;;5074095;28;20900;-47
2022/06/07 03:06:44;;;;;;;2.43;1.93;;;18.00;99.90;;;;;;5074323;28;20532;-46
2022/06/07 03:09:11;;;;;;;2.10;1.90;;;17.90;99.90;;;;;;5073650;28;20522;-45
2022/06/07 03:11:38;;;;;;;3.10;2.33;;;17.90;99.90;;;;;;5074205;28;20518;-46
2022/06/07 03:14:06;;;;;;;5.03;1.90;;;17.90;99.90;;;;;;5073834;28;20494;-46
2022/06/07 03:16:33;;;;;;;2.60;2.27;;;17.80;99.90;;;;;;5073921;28;20443;-45
2022/06/07 03:19:01;;;;;;;4.40;2.60;;;17.80;99.90;;;;;;5073907;28;20464;-47
2022/06/07 03:21:29;;;;;;;6.83;2.17;;;17.80;99.90;;;;;;5073914;28;20436;-45
2022/06/07 03:23:56;;;;;;;4.10;2.40;;;17.90;99.90;;;;;;5073768;28;20446;-46
2022/06/07 03:26:23;;;;;;;2.60;1.97;;;18.00;99.90;;;;;;5073925;28;20445;-48
2022/06/07 03:28:50;;;;;;;2.50;2.30;;;18.00;99.90;;;;;;5073382;28;20488;-45
2022/06/07 03:31:19;;;;;;;2.80;2.33;;;18.10;99.90;;;;;;5073778;28;20437;-45
2022/06/07 03:33:47;;;;;;;3.00;2.33;;;18.10;99.90;;;;;;5073555;28;20556;-48
2022/06/07 03:36:20;;;;;;;3.43;1.80;;;18.10;99.90;;;;;;5073646;28;20442;-45
2022/06/07 03:38:48;;;;;;;4.37;2.07;;;17.90;99.90;;;;;;5073491;28;20781;-43
2022/06/07 03:41:20;;;;;;;3.90;2.63;;;17.90;99.90;;;;;;5073347;28;20437;-45
2022/06/07 03:43:47;;;;;;;4.50;1.90;;;17.90;99.90;;;;;;5073388;28;20992;-45
2022/06/07 03:46:16;;;;;;;2.87;2.10;;;18.00;99.90;;;;;;5073422;28;20441;-45
2022/06/07 03:48:43;;;;;;;3.10;2.10;;;18.00;99.90;;;;;;5072965;28;20476;-48
2022/06/07 03:51:11;;;;;;;2.13;1.93;;;18.00;99.90;;;;;;5073676;28;20479;-45
2022/06/07 03:53:40;;;;;;;2.93;2.23;;;18.00;99.90;;;;;;5073071;28;20487;-45
2022/06/07 03:56:08;;;;;;;2.97;2.40;;;18.00;99.90;;;;;;5073346;28;20444;-47
2022/06/07 03:58:37;;;;;;;2.43;2.20;;;18.10;99.90;;;;;;5073131;28;20444;-45
2022/06/07 04:01:04;;;;;;;3.07;1.73;;;18.00;99.90;;;;;;5073467;28;20440;-45
2022/06/07 04:03:31;;;;;;;2.27;1.80;;;17.90;99.90;;;;;;5073285;28;20486;-47
2022/06/07 04:05:59;;;;;;;3.13;2.10;;;17.80;99.90;;;;;;5073176;28;21041;-47
2022/06/07 04:08:26;;;;;;;2.97;2.10;;;17.80;99.90;;;;;;5073109;28;20498;-47
2022/06/07 04:10:57;;;;;;;2.90;2.37;;;17.90;99.90;;;;;;5073113;28;20982;-49
2022/06/07 04:13:27;;;;;;;3.30;2.20;;;17.90;99.90;;;;;;5072707;28;20468;-46
2022/06/07 04:15:54;;;;;;;2.87;2.20;;;17.80;99.90;;;;;;5072952;28;20445;-45
2022/06/07 04:18:22;;;;;;;4.10;2.20;;;17.60;99.90;;;;;;5072601;28;20921;-49
2022/06/07 04:20:49;;;;;;;3.10;2.07;;;17.60;99.90;;;;;;5072919;28;20440;-48
2022/06/07 04:23:18;;;;;;;2.93;1.97;;;17.40;99.90;;;;;;5072969;28;20468;-45
2022/06/07 04:25:45;;;;;;;2.90;2.10;;;17.20;99.90;;;;;;5072881;28;20440;-45
2022/06/07 04:28:14;;;;;;;2.80;1.83;;;17.20;99.90;;;;;;5072685;28;20574;-45
2022/06/07 04:30:44;;;;;;;3.50;1.97;;;17.30;99.90;;;;;;5072265;28;20526;-46
2022/06/07 04:33:11;;;;;;;2.43;1.80;;;17.50;99.90;;;;;;5072431;28;20551;-46
2022/06/07 04:35:38;;;;;;;3.43;2.10;;;17.60;99.90;;;;;;5072668;28;20490;-45
2022/06/07 04:38:06;;;;;;;4.70;2.17;;;17.70;99.90;;;;;;5072189;28;20476;-45
2022/06/07 04:40:32;;;;;;;4.57;2.20;;;17.80;99.90;;;;;;5072220;28;20437;-46
2022/06/07 04:42:59;;;;;;;2.73;2.30;;;17.80;99.90;;;;;;5072507;28;20885;-45
2022/06/07 04:45:28;;;;;;;3.10;1.93;;;17.90;99.90;;;;;;5072286;28;20480;-47
2022/06/07 04:47:55;;;;;;;2.97;2.67;;;17.90;99.90;;;;;;5071948;28;20481;-46
2022/06/07 04:50:22;;;;;;;2.90;2.70;;;17.80;99.90;;;;;;5071675;28;20486;-45
2022/06/07 04:52:49;;;;;;;3.23;2.00;;;17.60;99.90;;;;;;5072072;28;20500;-47
2022/06/07 04:55:17;;;;;;;3.93;2.10;;;17.40;99.90;;;;;;5072121;28;20486;-46
2022/06/07 04:57:44;;;;;;;4.40;2.23;;;17.10;99.90;;;;;;5072293;28;20525;-45
2022/06/07 05:00:15;;;;;;;1.93;1.73;;;17.00;99.90;;;;;;5071762;28;20476;-47
2022/06/07 05:02:43;;;;;;;4.13;1.93;;;16.90;99.90;;;;;;5071914;28;20465;-45
2022/06/07 05:05:11;;;;;;;3.10;1.80;;;16.90;99.90;;;;;;5071933;28;20866;-46
2022/06/07 05:07:38;;;;;;;5.17;2.30;;;17.00;99.90;;;;;;5072305;28;20951;-46
2022/06/07 05:10:08;;;;;;;2.80;2.13;;;17.10;99.90;;;;;;5071613;28;20529;-49
2022/06/07 05:12:35;;;;;;;3.67;2.20;;;17.20;99.90;;;;;;5071852;28;20496;-46
2022/06/07 05:15:03;;;;;;;3.67;1.83;;;17.10;99.90;;;;;;5071461;28;20829;-47
2022/06/07 05:17:31;;;;;;;2.23;1.87;;;17.10;99.90;;;;;;5071968;28;20440;-45
2022/06/07 05:19:59;;;;;;;6.00;1.80;;;17.20;99.90;;;;;;5071828;28;20437;-45
2022/06/07 05:22:27;;;;;;;2.63;1.77;;;17.20;99.90;;;;;;5071392;28;20965;-46
2022/06/07 05:24:54;;;;;;;2.13;1.90;;;17.00;99.90;;;;;;5071583;28;20937;-45
2022/06/07 05:27:23;;;;;;;1.70;1.00;;;16.90;99.90;;;;;;5071843;28;20494;-46
2022/06/07 05:29:53;;;;;;;1.93;1.07;;;17.00;99.90;;;;;;5071358;28;20476;-46
2022/06/07 05:32:20;;;;;;;1.57;0.93;;;16.90;99.90;;;;;;5071488;28;20521;-45
2022/06/07 05:34:48;;;;;;;1.73;1.10;;;16.80;99.90;;;;;;5071326;28;20929;-47
2022/06/07 05:37:19;;;;;;;1.90;1.13;;;16.60;99.90;;;;;;5071801;28;20858;-47
2022/06/07 05:39:47;;;;;;;1.57;1.20;;;16.40;99.90;;;;;;5071312;28;20436;-46
2022/06/07 05:42:15;;;;;;;3.30;1.17;;;16.20;99.90;;;;;;5071296;28;20456;-48
2022/06/07 05:44:42;;;;;;;1.30;0.70;;;16.40;99.90;;;;;;5071453;28;20564;-45
2022/06/07 05:47:10;;;;;;;0.90;0.50;;;16.60;99.90;;;;;;5071026;28;20440;-45
2022/06/07 05:49:37;;;;;;;1.10;0.70;;;16.50;99.90;;;;;;5069953;28;20476;-46
2022/06/07 05:52:07;;;;;;;1.17;0.50;;;16.60;99.90;;;;;;5070952;28;20895;-48
2022/06/07 05:54:38;;;;;;;1.10;0.70;;;16.60;99.90;;;;;;5071037;28;20452;-45
2022/06/07 05:57:06;;;;;;;1.63;0.73;;;16.80;99.90;;;;;;5070479;28;20536;-47
2022/06/07 05:59:33;;;;;;;0.90;0.50;;;16.90;99.90;;;;;;5069922;28;20437;-50
2022/06/07 06:02:00;;;;;;;1.30;0.60;;;16.60;99.90;;;;;;5069288;28;20492;-46
2022/06/07 06:04:27;;;;;;;1.00;0.60;;;16.60;99.90;;;;;;5071130;28;20472;-49
2022/06/07 06:06:55;;;;;;;1.00;0.50;;;16.60;99.90;;;;;;5071013;28;20519;-46
2022/06/07 06:12:09;;;;;;;4.83;0.80;;;16.60;99.90;;;;;;5070515;28;20765;-45
2022/06/07 06:14:36;;;;;;;2.93;0.70;;;16.70;99.90;;;;;;5070037;28;20510;-46
2022/06/07 06:17:03;;;;;;;1.10;0.60;;;16.70;99.90;;;;;;5070899;28;20502;-45
2022/06/07 06:19:30;;;;;;;1.30;0.70;;;16.70;99.90;;;;;;5070842;28;20436;-46
2022/06/07 06:21:57;;;;;;;1.50;0.60;;;16.80;99.90;;;;;;5070255;28;20482;-46
2022/06/07 06:24:25;;;;;;;1.27;0.50;;;16.90;99.90;;;;;;5069963;28;20472;-49
2022/06/07 06:26:54;;;;;;;0.90;0.50;;;16.80;99.90;;;;;;5069985;28;20451;-46
2022/06/07 06:29:23;;;;;;;2.60;0.70;;;16.90;99.90;;;;;;5069122;28;20498;-45
2022/06/07 06:31:51;;;;;;;1.33;0.60;;;17.00;99.90;;;;;;5069376;28;20996;-45
2022/06/07 06:34:19;;;;;;;1.20;0.57;;;17.00;99.90;;;;;;5069547;28;20535;-45
2022/06/07 06:36:47;;;;;;;0.90;0.43;;;17.00;99.90;;;;;;5069802;28;20445;-46
2022/06/07 06:39:15;;;;;;;2.47;0.67;;;17.10;99.90;;;;;;5070463;28;20451;-46
2022/06/07 06:41:45;;;;;;;2.87;0.80;;;17.10;99.90;;;;;;5070416;28;20937;-45
2022/06/07 06:44:12;;;;;;;1.00;0.50;;;17.10;99.90;;;;;;5070571;28;20448;-48
2022/06/07 06:46:43;;;;;;;1.57;0.67;;;17.10;99.90;;;;;;5070653;28;20502;-46
2022/06/07 06:49:13;;;;;;;1.90;0.67;;;17.10;99.90;;;;;;5070321;28;20472;-49
2022/06/07 06:51:42;;;;;;;1.30;0.60;;;17.20;99.90;;;;;;5070577;28;20448;-45
2022/06/07 06:54:11;;;;;;;0.90;0.50;;;17.20;99.90;;;;;;5070554;28;20859;-46
2022/06/07 06:56:38;;;;;;;2.23;0.60;;;17.20;99.90;;;;;;5070828;28;20448;-46
2022/06/07 06:59:06;;;;;;;1.57;0.70;;;17.30;99.90;;;;;;5070470;28;20959;-45
2022/06/07 07:01:35;;;;;;;1.30;0.70;;;17.30;99.90;;;;;;5072703;28;20497;-47
2022/06/07 07:04:06;;;;;;;1.80;0.90;;;17.30;99.90;;;;;;5074462;28;20941;-45
2022/06/07 07:06:33;;;;;;;1.20;0.80;;;17.40;99.90;;;;;;5074278;28;20506;-48
2022/06/07 07:09:00;;;;;;;1.50;0.70;;;17.30;99.90;;;;;;5073833;28;20568;-46
2022/06/07 07:11:31;;;;;;;1.70;0.60;;;17.40;99.90;;;;;;5073954;28;20501;-48
2022/06/07 07:13:59;;;;;;;1.10;0.80;;;17.40;99.90;;;;;;5073781;28;20441;-46
2022/06/07 07:16:28;;;;;;;1.20;0.70;;;17.50;99.90;;;;;;5074195;28;20447;-45
2022/06/07 07:18:56;;;;;;;1.83;0.60;;;17.60;99.90;;;;;;5073622;28;20471;-48
2022/06/07 07:21:28;;;;;;;1.20;0.70;;;17.40;99.90;;;;;;5073970;28;20466;-45
2022/06/07 07:23:57;;;;;;;1.53;0.90;;;17.10;99.90;;;;;;5073832;28;20874;-46
2022/06/07 07:26:28;;;;;;;1.57;0.60;;;17.00;99.90;;;;;;5074004;28;20535;-46
2022/06/07 07:28:55;;;;;;;3.17;1.00;;;17.20;99.90;;;;;;5073498;28;20502;-45
2022/06/07 07:31:24;;;;;;;2.23;1.60;;;17.30;99.90;;;;;;5073777;28;20497;-49
2022/06/07 07:33:52;;;;;;;1.60;1.13;;;17.40;99.90;;;;;;5073801;28;20995;-45
2022/06/07 07:36:20;;;;;;;1.40;0.90;;;17.40;99.90;;;;;;5073734;28;20501;-46
2022/06/07 07:38:48;;;;;;;1.97;0.70;;;17.50;99.90;;;;;;5073368;28;20857;-47
2022/06/07 07:41:19;;;;;;;2.07;0.67;;;17.60;99.90;;;;;;5073592;28;20468;-46
2022/06/07 07:43:47;;;;;;;2.77;0.80;;;17.70;99.90;;;;;;5073579;28;20503;-46
2022/06/07 07:46:14;;;;;;;1.30;0.90;;;17.70;99.90;;;;;;5073215;28;20548;-47
2022/06/07 07:48:41;;;;;;;2.60;0.90;;;17.80;99.90;;;;;;5073359;28;20967;-45
2022/06/07 07:51:10;;;;;;;1.63;1.03;;;17.80;99.90;;;;;;5073616;28;20484;-45
2022/06/07 07:53:37;;;;;;;1.77;1.07;;;17.80;99.90;;;;;;5130660;22;20527;-47
2022/06/07 07:56:08;;;;;;;4.30;1.10;;;17.80;99.90;;;;;;5073871;28;20490;-49
2022/06/07 07:58:36;;;;;;;1.73;0.80;;;17.80;99.90;;;;;;5073111;28;20446;-46
2022/06/07 08:01:09;;;;;;;6.43;0.93;;;17.80;99.90;;;;;;5073210;28;20444;-47
2022/06/07 08:03:38;;;;;;;2.90;1.07;;;17.80;99.90;;;;;;5073115;28;20972;-53
2022/06/07 08:06:06;;;;;;;1.50;0.97;;;17.90;99.90;;;;;;5073380;28;20535;-46
2022/06/07 08:08:33;;;;;;;1.60;1.03;;;17.90;99.90;;;;;;5073272;28;20440;-47
2022/06/07 08:11:00;;;;;;;1.87;0.80;;;18.00;99.90;;;;;;5072494;28;20486;-57
2022/06/07 08:13:29;;;;;;;1.53;0.90;;;18.00;99.90;;;;;;5071947;28;20487;-45
2022/06/07 08:15:56;;;;;;;1.60;1.00;;;18.10;99.90;;;;;;5073036;28;20449;-47
2022/06/07 08:18:24;;;;;;;1.40;0.60;;;18.10;99.90;;;;;;5072939;28;20440;-48
2022/06/07 08:20:57;;;;;;;1.93;0.80;;;18.20;99.90;;;;;;5072347;28;20505;-48
2022/06/07 08:23:23;;;;;;;1.10;0.60;;;18.20;99.90;;;;;;5072937;28;20972;-49
2022/06/07 08:25:50;;;;;;;1.40;0.73;;;18.30;99.90;;;;;;5072770;28;20518;-47
2022/06/07 08:28:17;;;;;;;1.70;0.73;;;18.30;99.90;;;;;;5072791;28;20858;-47
2022/06/07 08:30:47;;;;;;;2.50;0.80;;;18.30;99.90;;;;;;5072335;28;20476;-47
2022/06/07 08:38:43;;;;;;;3.37;0.70;;;18.30;99.90;;;;;;5072492;28;20428;-47
2022/06/07 08:41:22;;;;;;;1.93;0.70;;;18.30;99.90;;;;;;5072433;28;20440;-47
2022/06/07 08:43:49;;;;;;;1.63;0.77;;;18.30;99.90;;;;;;5072139;28;21066;-50
2022/06/07 08:46:19;;;;;;;1.50;0.90;;;18.30;99.90;;;;;;5072171;28;20497;-47
2022/06/07 08:48:47;;;;;;;2.50;0.87;;;18.30;99.90;;;;;;5072241;28;20452;-45
2022/06/07 08:51:20;;;;;;;1.30;0.90;;;18.30;99.90;;;;;;5072278;28;20561;-48
2022/06/07 08:53:52;;;;;;;1.37;0.90;;;18.30;99.90;;;;;;5072135;28;20518;-48
2022/06/07 08:56:21;;;;;;;1.50;0.70;;;18.30;99.90;;;;;;5072072;28;20476;-48
2022/06/07 08:58:51;;;;;;;3.53;1.20;;;18.40;99.90;;;;;;5071799;28;20444;-48
2022/06/07 09:01:28;;;;;;;3.37;0.97;;;18.40;99.90;;;;;;5072373;28;20444;-47
2022/06/07 09:04:07;;;;;;;3.53;1.50;;;18.50;99.90;;;;;;5071886;28;20470;-47
2022/06/07 09:06:38;;;;;;;1.50;0.60;;;18.60;99.90;;;;;;5072027;28;20451;-48
2022/06/07 09:09:06;;;;;;;3.30;1.00;;;18.60;99.90;;;;;;5071984;28;20494;-48
2022/06/07 09:14:30;;;;;;;1.10;0.60;;;18.60;99.90;;;;;;5071692;28;20697;-47
2022/06/07 09:17:01;;;;;;;1.87;0.70;;;18.50;99.90;;;;;;5071762;28;20495;-47
2022/06/07 09:19:30;;;;;;;1.57;0.90;;;18.10;99.90;;;;;;5071413;28;20472;-47
2022/06/07 09:22:00;;;;;;;4.13;1.07;;;17.80;99.90;;;;;;5071664;28;20525;-48
2022/06/07 09:24:31;;;;;;;1.53;1.07;;;17.40;99.90;;;;;;5071511;28;20494;-50
2022/06/07 09:27:07;;;;;;;2.30;0.80;;;16.90;99.90;;;;;;5071455;28;20955;-47
2022/06/07 09:29:38;;;;;;;1.20;0.90;;;16.50;99.90;;;;;;5071347;28;20448;-48
2022/06/07 09:32:11;;;;;;;1.70;0.90;;;16.50;99.90;;;;;;5071632;28;20452;-47
2022/06/07 09:34:48;;;;;;;1.87;1.00;;;16.40;99.90;;;;;;5071305;28;20522;-47
2022/06/07 09:37:22;;;;;;;1.10;0.60;;;16.30;99.90;;;;;;5071462;28;20440;-47
2022/06/07 09:39:55;;;;;;;1.23;0.80;;;16.10;99.90;;;;;;5070953;28;20856;-47
2022/06/07 09:42:27;;;;;;;1.27;0.90;;;16.10;99.90;;;;;;5071538;28;20477;-47
2022/06/07 09:44:59;;;;;;;1.40;0.90;;;16.20;99.90;;;;;;5071354;28;20533;-47
2022/06/07 09:47:29;;;;;;;1.40;1.00;;;16.10;99.90;;;;;;5071556;28;21021;-47
2022/06/07 09:49:59;;;;;;;1.10;0.70;;;16.20;99.90;;;;;;5071064;28;20503;-48
2022/06/07 09:52:29;;;;;;;1.30;0.80;;;16.30;99.90;;;;;;5071366;28;20482;-46
2022/06/07 09:55:00;;;;;;;1.93;1.17;;;16.40;99.90;;;;;;5071482;28;20441;-48
2022/06/07 09:57:39;;;;;;;2.83;1.37;;;16.50;99.90;;;;;;5070988;28;20930;-48
2022/06/07 10:00:17;;;;;;;4.53;2.60;;;16.70;99.90;;;;;;5070974;28;20527;-47
2022/06/07 10:03:02;;;;;;;1.83;1.37;;;16.90;99.90;;;;;;5071528;28;20998;-47
2022/06/07 10:05:34;;;;;;;1.43;1.20;;;17.00;99.90;;;;;;5071137;28;20444;-47
2022/06/07 10:08:12;;;;;;;2.60;1.20;;;17.00;99.90;;;;;;5071261;28;20526;-47
2022/06/07 10:10:47;;;;;;;1.50;1.40;;;17.10;99.90;;;;;;5070807;28;20565;-44
2022/06/07 10:13:24;;;;;;;1.87;1.20;;;16.90;99.90;;;;;;5069894;28;20463;-47
2022/06/07 10:16:00;;;;;;;1.70;1.60;;;16.80;99.90;;;;;;5071173;28;20538;-47
2022/06/07 10:18:41;;;;;;;3.90;1.20;;;16.60;99.90;;;;;;5070854;28;20435;-47
2022/06/07 10:21:21;;;;;;;1.40;1.00;;;16.40;99.90;;;;;;5070970;28;20521;-48
2022/06/07 10:24:04;;;;;;;1.90;1.00;;;16.30;99.90;;;;;;5070737;28;20999;-47
2022/06/07 10:26:39;;;;;;;1.37;1.00;;;16.40;99.90;;;;;;5071263;28;20441;-47
2022/06/07 10:29:18;;;;;;;1.90;1.30;;;16.50;99.90;;;;;;5070262;28;20944;-47
2022/06/07 10:31:51;;;;;;;1.47;0.93;;;16.70;99.90;;;;;;5070943;28;20483;-47
2022/06/07 10:34:31;;;;;;;1.60;1.13;;;16.90;99.90;;;;;;5070384;28;20883;-47
2022/06/07 10:37:09;;;;;;;2.13;1.40;;;17.10;99.90;;;;;;5073814;28;20528;-47
2022/06/07 10:39:54;;;;;;;1.40;1.20;;;17.20;99.90;;;;;;5074320;28;20519;-48
2022/06/07 10:42:29;;;;;;;3.20;1.30;;;17.30;99.90;;;;;;5074667;28;20475;-47
2022/06/07 10:45:05;;;;;;;1.60;0.97;;;17.40;99.90;;;;;;5074393;28;20444;-49
2022/06/07 10:47:35;;;;;;;1.77;0.90;;;17.40;99.90;;;;;;5074686;28;20444;-47
2022/06/07 10:50:14;;;;;;;2.40;1.13;;;17.40;99.90;;;;;;5073961;28;20476;-47
2022/06/07 10:52:48;;;;;;;3.00;1.57;;;17.50;99.90;;;;;;5074374;28;20471;-46
2022/06/07 10:55:24;;;;;;;1.50;1.00;;;17.50;99.90;;;;;;5074355;28;20531;-49
2022/06/07 10:58:04;;;;;;;1.60;0.97;;;17.70;99.90;;;;;;5073999;28;20476;-48
2022/06/07 11:00:36;;;;;;;2.60;2.40;;;17.70;99.90;;;;;;5073982;28;20444;-49
2022/06/07 11:03:26;;;;;;;2.30;1.60;;;17.70;99.90;;;;;;5074587;28;20543;-48
2022/06/07 11:11:41;;;;;;;2.37;1.50;;;17.70;99.90;;;;;;5073649;28;20471;-47
2022/06/07 11:14:21;;;;;;;3.93;1.57;;;17.70;99.90;;;;;;5073632;28;20464;-48
2022/06/07 11:16:57;;;;;;;2.03;1.50;;;17.80;99.90;;;;;;5073627;28;20851;-47
2022/06/07 11:19:25;;;;;;;1.60;1.27;;;17.80;99.90;;;;;;5073917;28;20444;-49
2022/06/07 11:21:58;;;;;;;2.43;0.93;;;17.80;99.90;;;;;;5074325;28;20460;-48
2022/06/07 11:24:30;;;;;;;2.83;1.70;;;17.80;99.90;;;;;;5073995;28;20448;-47
2022/06/07 11:27:27;;;;;;;2.60;1.80;;;17.80;99.90;;;;;;5073862;28;20487;-48
2022/06/07 11:30:28;;;;;;;2.10;1.40;;;17.90;99.90;;;;;;5073815;28;20445;-48
2022/06/07 11:32:57;;;;;;;1.70;1.20;;;17.80;99.90;;;;;;5073719;28;20839;-49
2022/06/07 11:35:53;;;;;;;3.40;1.40;;;17.80;99.90;;;;;;5073774;28;20452;-47
2022/06/07 11:38:30;;;;;;;3.70;1.27;;;17.80;99.90;;;;;;5073520;28;20444;-47
2022/06/07 11:43:56;;;;;;;2.23;1.10;;;17.60;99.90;;;;;;5073241;28;20448;-47
2022/06/07 11:46:27;;;;;;;1.77;1.20;;;17.70;99.90;;;;;;5073728;28;20444;-47
2022/06/07 11:48:54;;;;;;;3.20;1.17;;;17.70;99.90;;;;;;5072252;28;20432;-49
2022/06/07 11:51:23;;;;;;;1.93;1.43;;;17.70;99.90;;;;;;5073401;28;20826;-47
2022/06/07 11:54:02;;;;;;;2.10;1.00;;;17.80;99.90;;;;;;5073314;28;20569;-47
2022/06/07 11:56:40;;;;;;;1.40;0.90;;;17.90;99.90;;;;;;5073224;28;20937;-47
2022/06/07 11:59:32;;;;;;;1.30;0.93;;;17.90;99.90;;;;;;5072828;28;21002;-48
2022/06/07 12:02:23;;;;;;;2.23;1.10;;;17.90;99.90;;;;;;5062043;28;20444;-51
2022/06/07 12:05:16;;;;;;;1.80;0.77;;;18.00;99.90;;;;;;5073189;28;20506;-47
2022/06/07 12:07:49;;;;;;;2.30;1.17;;;18.00;99.90;;;;;;5073117;28;20786;-48
2022/06/07 12:10:40;;;;;;;2.17;1.10;;;18.00;99.90;;;;;;5073490;28;20865;-47
2022/06/07 12:13:13;;;;;;;1.37;0.97;;;18.00;99.90;;;;;;5067435;28;20468;-47
2022/06/07 12:15:44;;;;;;;1.43;1.10;;;18.00;99.90;;;;;;5073150;28;20444;-47
2022/06/07 12:18:19;;;;;;;1.43;1.20;;;18.00;99.90;;;;;;5072904;28;20464;-48
2022/06/07 12:20:54;;;;;;;1.30;0.90;;;18.00;99.90;;;;;;5072734;28;20464;-50
2022/06/07 12:23:26;;;;;;;1.93;1.30;;;18.00;99.90;;;;;;5072674;28;20827;-47
2022/06/07 12:25:58;;;;;;;3.03;0.80;;;18.00;99.90;;;;;;5073033;28;20440;-47
2022/06/07 12:28:27;;;;;;;1.40;0.80;;;18.10;99.90;;;;;;5072944;28;20998;-48
2022/06/07 12:30:55;;;;;;;1.70;1.03;;;18.00;99.90;;;;;;5072896;28;20500;-53
2022/06/07 12:33:28;;;;;;;1.40;0.77;;;18.10;99.90;;;;;;5072804;28;20483;-47
2022/06/07 12:35:59;;;;;;;1.30;0.80;;;18.20;99.90;;;;;;5072597;28;20793;-48
2022/06/07 12:38:26;;;;;;;3.23;0.80;;;18.20;99.90;;;;;;5072896;28;20436;-49
2022/06/07 12:41:00;;;;;;;2.43;0.83;;;18.20;99.90;;;;;;5072543;28;20471;-50
2022/06/07 12:43:31;;;;;;;1.40;0.90;;;18.30;99.90;;;;;;5072181;28;21070;-47
2022/06/07 12:46:03;;;;;;;1.53;0.90;;;18.30;99.90;;;;;;5072301;28;20447;-47
2022/06/07 12:48:37;;;;;;;1.03;0.70;;;18.40;99.90;;;;;;5072026;28;20451;-49
2022/06/07 12:51:22;;;;;;;1.10;0.60;;;18.30;99.90;;;;;;5072053;28;20476;-50
2022/06/07 12:53:51;;;;;;;1.60;0.80;;;18.30;99.90;;;;;;5072183;28;21044;-47
2022/06/07 12:56:19;;;;;;;1.40;0.80;;;18.30;99.90;;;;;;5071955;28;20440;-50
2022/06/07 12:58:49;;;;;;;1.37;0.73;;;18.30;99.90;;;;;;5071422;28;20956;-49
2022/06/07 13:01:26;;;;;;;1.37;0.73;;;18.30;99.90;;;;;;5071913;28;20441;-51
2022/06/07 13:03:56;;;;;;;1.13;0.70;;;18.30;99.90;;;;;;5071930;28;20968;-47
2022/06/07 13:06:25;;;;;;;1.10;0.50;;;18.30;99.90;;;;;;5071835;28;20818;-47
2022/06/07 13:09:02;;;;;;;1.30;0.60;;;18.40;99.90;;;;;;5071809;28;20444;-47
2022/06/07 13:11:37;;;;;;;1.20;0.60;;;18.40;99.90;;;;;;5071777;28;20476;-47
2022/06/07 13:14:05;;;;;;;1.20;0.80;;;18.30;99.90;;;;;;5071690;28;20464;-47
2022/06/07 13:16:37;;;;;;;1.30;0.57;;;18.30;99.90;;;;;;5071909;28;20444;-48
2022/06/07 13:19:19;;;;;;;1.43;0.67;;;18.30;99.90;;;;;;5071566;28;20941;-47
2022/06/07 13:21:52;;;;;;;2.60;0.60;;;18.40;99.90;;;;;;5071677;28;20506;-50
2022/06/07 13:24:22;;;;;;;1.47;0.93;;;18.30;99.90;;;;;;5071562;28;20980;-48
2022/06/07 13:26:57;;;;;;;3.03;0.90;;;18.30;99.90;;;;;;5071517;28;20932;-47
2022/06/07 13:29:27;;;;;;;5.50;2.20;;;18.30;99.90;;;;;;5070913;28;20448;-49
2022/06/07 13:31:57;;;;;;;1.63;0.93;;;18.30;99.90;;;;;;5070564;28;20486;-49